sensor_id;sensor_type;location;lat;lon;timestamp;P1;durP1;ratioP1;P2;durP2;ratioP2
10645;SDS011;5371;49.782;9.932;2023-04-25T00:00:51;3.63;;;3.17;;
10645;SDS011;5371;49.782;9.932;2023-04-25T00:03:18;3.97;;;2.90;;
10645;SDS011;5371;49.782;9.932;2023-04-25T00:05:46;3.95;;;3.13;;
10645;SDS011;5371;49.782;9.932;2023-04-25T00:08:14;4.33;;;3.37;;
10645;SDS011;5371;49.782;9.932;2023-04-25T00:10:42;3.70;;;3.30;;
10645;SDS011;5371;49.782;9.932;2023-04-25T00:13:09;4.67;;;3.47;;
10645;SDS011;5371;49.782;9.932;2023-04-25T00:15:36;3.50;;;3.20;;
10645;SDS011;5371;49.782;9.932;2023-04-25T00:18:04;7.10;;;3.63;;
10645;SDS011;5371;49.782;9.932;2023-04-25T00:20:32;3.47;;;2.93;;
10645;SDS011;5371;49.782;9.932;2023-04-25T00:23:00;3.83;;;2.87;;
10645;SDS011;5371;49.782;9.932;2023-04-25T00:25:27;3.90;;;3.50;;
10645;SDS011;5371;49.782;9.932;2023-04-25T00:27:56;4.73;;;3.47;;
10645;SDS011;5371;49.782;9.932;2023-04-25T00:30:23;5.30;;;3.70;;
10645;SDS011;5371;49.782;9.932;2023-04-25T00:32:51;4.00;;;3.50;;
10645;SDS011;5371;49.782;9.932;2023-04-25T00:35:19;3.97;;;3.30;;
10645;SDS011;5371;49.782;9.932;2023-04-25T00:37:47;4.37;;;3.50;;
10645;SDS011;5371;49.782;9.932;2023-04-25T00:40:15;4.27;;;3.37;;
10645;SDS011;5371;49.782;9.932;2023-04-25T00:42:45;3.50;;;3.20;;
10645;SDS011;5371;49.782;9.932;2023-04-25T00:45:15;5.87;;;3.10;;
10645;SDS011;5371;49.782;9.932;2023-04-25T00:47:42;4.40;;;3.60;;
10645;SDS011;5371;49.782;9.932;2023-04-25T00:50:09;5.83;;;3.40;;
10645;SDS011;5371;49.782;9.932;2023-04-25T00:52:37;4.37;;;3.30;;
10645;SDS011;5371;49.782;9.932;2023-04-25T00:55:07;4.57;;;3.33;;
10645;SDS011;5371;49.782;9.932;2023-04-25T00:57:35;4.67;;;3.70;;
10645;SDS011;5371;49.782;9.932;2023-04-25T01:00:03;4.63;;;3.57;;
10645;SDS011;5371;49.782;9.932;2023-04-25T01:02:37;4.25;;;3.60;;
10645;SDS011;5371;49.782;9.932;2023-04-25T01:05:05;5.27;;;3.57;;
10645;SDS011;5371;49.782;9.932;2023-04-25T01:07:32;4.53;;;3.60;;
10645;SDS011;5371;49.782;9.932;2023-04-25T01:10:00;3.73;;;3.33;;
10645;SDS011;5371;49.782;9.932;2023-04-25T01:12:36;4.43;;;3.80;;
10645;SDS011;5371;49.782;9.932;2023-04-25T01:15:04;4.23;;;3.60;;
10645;SDS011;5371;49.782;9.932;2023-04-25T01:17:32;4.33;;;3.90;;
10645;SDS011;5371;49.782;9.932;2023-04-25T01:20:04;4.10;;;3.70;;
10645;SDS011;5371;49.782;9.932;2023-04-25T01:22:34;4.10;;;3.67;;
10645;SDS011;5371;49.782;9.932;2023-04-25T01:25:04;4.40;;;3.90;;
10645;SDS011;5371;49.782;9.932;2023-04-25T01:27:32;5.97;;;4.17;;
10645;SDS011;5371;49.782;9.932;2023-04-25T01:30:00;5.13;;;4.00;;
10645;SDS011;5371;49.782;9.932;2023-04-25T01:32:28;4.97;;;3.80;;
10645;SDS011;5371;49.782;9.932;2023-04-25T01:35:03;4.27;;;3.67;;
10645;SDS011;5371;49.782;9.932;2023-04-25T01:37:36;6.13;;;3.93;;
10645;SDS011;5371;49.782;9.932;2023-04-25T01:40:03;3.90;;;3.50;;
10645;SDS011;5371;49.782;9.932;2023-04-25T01:42:31;4.10;;;3.60;;
10645;SDS011;5371;49.782;9.932;2023-04-25T01:45:02;4.67;;;3.33;;
10645;SDS011;5371;49.782;9.932;2023-04-25T01:47:29;3.80;;;3.50;;
10645;SDS011;5371;49.782;9.932;2023-04-25T01:49:56;4.30;;;3.60;;
10645;SDS011;5371;49.782;9.932;2023-04-25T01:52:24;3.90;;;3.50;;
10645;SDS011;5371;49.782;9.932;2023-04-25T01:54:55;3.53;;;3.23;;
10645;SDS011;5371;49.782;9.932;2023-04-25T01:57:24;4.10;;;3.70;;
10645;SDS011;5371;49.782;9.932;2023-04-25T01:59:52;3.40;;;3.10;;
10645;SDS011;5371;49.782;9.932;2023-04-25T02:02:40;4.03;;;2.90;;
10645;SDS011;5371;49.782;9.932;2023-04-25T02:05:24;3.30;;;3.00;;
10645;SDS011;5371;49.782;9.932;2023-04-25T02:07:51;3.13;;;2.83;;
10645;SDS011;5371;49.782;9.932;2023-04-25T02:10:20;3.10;;;2.80;;
10645;SDS011;5371;49.782;9.932;2023-04-25T02:13:08;3.17;;;2.77;;
10645;SDS011;5371;49.782;9.932;2023-04-25T02:15:56;3.20;;;2.90;;
10645;SDS011;5371;49.782;9.932;2023-04-25T02:18:26;2.83;;;2.60;;
10645;SDS011;5371;49.782;9.932;2023-04-25T02:20:53;3.60;;;2.67;;
10645;SDS011;5371;49.782;9.932;2023-04-25T02:23:20;3.33;;;2.80;;
10645;SDS011;5371;49.782;9.932;2023-04-25T02:25:49;3.53;;;2.30;;
10645;SDS011;5371;49.782;9.932;2023-04-25T02:28:21;2.40;;;2.20;;
10645;SDS011;5371;49.782;9.932;2023-04-25T02:30:48;2.67;;;2.20;;
10645;SDS011;5371;49.782;9.932;2023-04-25T02:33:16;2.33;;;2.03;;
10645;SDS011;5371;49.782;9.932;2023-04-25T02:35:43;2.97;;;2.13;;
10645;SDS011;5371;49.782;9.932;2023-04-25T02:38:10;2.97;;;2.23;;
10645;SDS011;5371;49.782;9.932;2023-04-25T02:40:39;2.10;;;1.90;;
10645;SDS011;5371;49.782;9.932;2023-04-25T02:43:07;2.20;;;1.87;;
10645;SDS011;5371;49.782;9.932;2023-04-25T02:45:34;2.07;;;1.80;;
10645;SDS011;5371;49.782;9.932;2023-04-25T02:48:05;2.73;;;2.43;;
10645;SDS011;5371;49.782;9.932;2023-04-25T02:50:33;2.10;;;1.90;;
10645;SDS011;5371;49.782;9.932;2023-04-25T02:53:01;2.37;;;2.07;;
10645;SDS011;5371;49.782;9.932;2023-04-25T02:55:34;3.90;;;2.10;;
10645;SDS011;5371;49.782;9.932;2023-04-25T02:58:04;2.50;;;2.30;;
10645;SDS011;5371;49.782;9.932;2023-04-25T03:00:48;2.70;;;1.93;;
10645;SDS011;5371;49.782;9.932;2023-04-25T03:03:16;2.10;;;1.90;;
10645;SDS011;5371;49.782;9.932;2023-04-25T03:05:48;2.93;;;2.17;;
10645;SDS011;5371;49.782;9.932;2023-04-25T03:08:21;2.83;;;2.27;;
10645;SDS011;5371;49.782;9.932;2023-04-25T03:10:48;2.13;;;1.93;;
10645;SDS011;5371;49.782;9.932;2023-04-25T03:13:18;3.30;;;2.17;;
10645;SDS011;5371;49.782;9.932;2023-04-25T03:15:45;3.30;;;2.60;;
10645;SDS011;5371;49.782;9.932;2023-04-25T03:18:14;2.30;;;2.10;;
10645;SDS011;5371;49.782;9.932;2023-04-25T03:20:42;2.50;;;2.30;;
10645;SDS011;5371;49.782;9.932;2023-04-25T03:23:12;2.60;;;2.40;;
10645;SDS011;5371;49.782;9.932;2023-04-25T03:25:41;2.43;;;2.23;;
10645;SDS011;5371;49.782;9.932;2023-04-25T03:28:09;4.03;;;2.40;;
10645;SDS011;5371;49.782;9.932;2023-04-25T03:30:36;3.57;;;2.80;;
10645;SDS011;5371;49.782;9.932;2023-04-25T03:33:04;3.23;;;2.70;;
10645;SDS011;5371;49.782;9.932;2023-04-25T03:35:33;3.67;;;2.80;;
10645;SDS011;5371;49.782;9.932;2023-04-25T03:38:01;3.97;;;2.70;;
10645;SDS011;5371;49.782;9.932;2023-04-25T03:40:38;3.30;;;2.87;;
10645;SDS011;5371;49.782;9.932;2023-04-25T03:43:31;5.80;;;3.37;;
10645;SDS011;5371;49.782;9.932;2023-04-25T03:46:14;4.23;;;3.70;;
10645;SDS011;5371;49.782;9.932;2023-04-25T03:48:41;4.17;;;3.33;;
10645;SDS011;5371;49.782;9.932;2023-04-25T03:51:15;4.43;;;3.90;;
10645;SDS011;5371;49.782;9.932;2023-04-25T03:53:45;6.30;;;4.20;;
10645;SDS011;5371;49.782;9.932;2023-04-25T03:56:19;4.90;;;4.40;;
10645;SDS011;5371;49.782;9.932;2023-04-25T03:58:52;5.23;;;4.70;;
10645;SDS011;5371;49.782;9.932;2023-04-25T04:01:22;6.43;;;4.67;;
10645;SDS011;5371;49.782;9.932;2023-04-25T04:03:49;5.37;;;4.83;;
10645;SDS011;5371;49.782;9.932;2023-04-25T04:06:18;6.90;;;5.10;;
10645;SDS011;5371;49.782;9.932;2023-04-25T04:08:54;7.73;;;4.80;;
10645;SDS011;5371;49.782;9.932;2023-04-25T04:11:32;4.77;;;4.27;;
10645;SDS011;5371;49.782;9.932;2023-04-25T04:13:59;5.93;;;4.70;;
10645;SDS011;5371;49.782;9.932;2023-04-25T04:16:27;8.27;;;4.80;;
10645;SDS011;5371;49.782;9.932;2023-04-25T04:18:55;6.17;;;4.93;;
10645;SDS011;5371;49.782;9.932;2023-04-25T04:21:24;7.53;;;5.33;;
10645;SDS011;5371;49.782;9.932;2023-04-25T04:23:55;6.33;;;4.70;;
10645;SDS011;5371;49.782;9.932;2023-04-25T04:26:23;4.30;;;3.90;;
10645;SDS011;5371;49.782;9.932;2023-04-25T04:29:08;5.37;;;4.40;;
10645;SDS011;5371;49.782;9.932;2023-04-25T04:31:52;5.77;;;4.70;;
10645;SDS011;5371;49.782;9.932;2023-04-25T04:34:31;7.10;;;4.93;;
10645;SDS011;5371;49.782;9.932;2023-04-25T04:37:07;5.37;;;4.77;;
10645;SDS011;5371;49.782;9.932;2023-04-25T04:39:36;6.67;;;4.87;;
10645;SDS011;5371;49.782;9.932;2023-04-25T04:42:15;6.03;;;5.13;;
10645;SDS011;5371;49.782;9.932;2023-04-25T04:45:00;6.87;;;5.43;;
10645;SDS011;5371;49.782;9.932;2023-04-25T04:48:01;7.33;;;5.77;;
10645;SDS011;5371;49.782;9.932;2023-04-25T04:50:46;9.27;;;6.00;;
10645;SDS011;5371;49.782;9.932;2023-04-25T04:53:46;6.87;;;5.70;;
10645;SDS011;5371;49.782;9.932;2023-04-25T04:56:49;7.00;;;5.70;;
10645;SDS011;5371;49.782;9.932;2023-04-25T04:59:35;6.60;;;5.60;;
10645;SDS011;5371;49.782;9.932;2023-04-25T05:02:42;7.83;;;5.80;;
10645;SDS011;5371;49.782;9.932;2023-04-25T05:05:34;6.83;;;5.87;;
10645;SDS011;5371;49.782;9.932;2023-04-25T05:08:26;6.87;;;5.83;;
10645;SDS011;5371;49.782;9.932;2023-04-25T05:11:27;7.30;;;5.90;;
10645;SDS011;5371;49.782;9.932;2023-04-25T05:14:18;7.73;;;6.63;;
10645;SDS011;5371;49.782;9.932;2023-04-25T05:17:15;10.50;;;6.67;;
10645;SDS011;5371;49.782;9.932;2023-04-25T05:20:11;8.00;;;6.10;;
10645;SDS011;5371;49.782;9.932;2023-04-25T05:22:59;8.17;;;6.77;;
10645;SDS011;5371;49.782;9.932;2023-04-25T05:25:50;9.37;;;6.37;;
10645;SDS011;5371;49.782;9.932;2023-04-25T05:28:37;8.53;;;6.80;;
10645;SDS011;5371;49.782;9.932;2023-04-25T05:31:27;10.03;;;6.90;;
10645;SDS011;5371;49.782;9.932;2023-04-25T05:34:02;8.03;;;6.70;;
10645;SDS011;5371;49.782;9.932;2023-04-25T05:36:45;8.27;;;6.70;;
10645;SDS011;5371;49.782;9.932;2023-04-25T05:39:14;8.20;;;6.53;;
10645;SDS011;5371;49.782;9.932;2023-04-25T05:42:01;9.83;;;6.53;;
10645;SDS011;5371;49.782;9.932;2023-04-25T05:44:49;7.50;;;6.70;;
10645;SDS011;5371;49.782;9.932;2023-04-25T05:47:37;7.57;;;6.27;;
10645;SDS011;5371;49.782;9.932;2023-04-25T05:50:25;8.17;;;7.03;;
10645;SDS011;5371;49.782;9.932;2023-04-25T05:53:01;8.60;;;6.53;;
10645;SDS011;5371;49.782;9.932;2023-04-25T05:55:51;9.17;;;6.87;;
10645;SDS011;5371;49.782;9.932;2023-04-25T05:58:24;8.07;;;6.43;;
10645;SDS011;5371;49.782;9.932;2023-04-25T06:01:02;7.20;;;5.87;;
10645;SDS011;5371;49.782;9.932;2023-04-25T06:03:31;9.20;;;6.23;;
10645;SDS011;5371;49.782;9.932;2023-04-25T06:05:58;7.30;;;6.50;;
10645;SDS011;5371;49.782;9.932;2023-04-25T06:08:31;9.38;;;6.35;;
10645;SDS011;5371;49.782;9.932;2023-04-25T06:11:02;9.90;;;6.32;;
10645;SDS011;5371;49.782;9.932;2023-04-25T06:13:31;9.07;;;6.13;;
10645;SDS011;5371;49.782;9.932;2023-04-25T06:16:03;7.57;;;6.25;;
10645;SDS011;5371;49.782;9.932;2023-04-25T06:18:35;8.53;;;6.23;;
10645;SDS011;5371;49.782;9.932;2023-04-25T06:21:02;8.00;;;6.47;;
10645;SDS011;5371;49.782;9.932;2023-04-25T06:23:32;8.90;;;6.43;;
10645;SDS011;5371;49.782;9.932;2023-04-25T06:26:06;13.93;;;8.93;;
10645;SDS011;5371;49.782;9.932;2023-04-25T06:28:38;14.00;;;7.00;;
10645;SDS011;5371;49.782;9.932;2023-04-25T06:31:13;9.00;;;6.47;;
10645;SDS011;5371;49.782;9.932;2023-04-25T06:33:44;9.67;;;6.80;;
10645;SDS011;5371;49.782;9.932;2023-04-25T06:36:17;8.68;;;6.20;;
10645;SDS011;5371;49.782;9.932;2023-04-25T06:38:48;8.40;;;5.60;;
10645;SDS011;5371;49.782;9.932;2023-04-25T06:41:20;6.85;;;5.68;;
10645;SDS011;5371;49.782;9.932;2023-04-25T06:43:56;7.85;;;5.45;;
10645;SDS011;5371;49.782;9.932;2023-04-25T06:46:35;7.95;;;6.05;;
10645;SDS011;5371;49.782;9.932;2023-04-25T06:49:07;8.73;;;5.88;;
10645;SDS011;5371;49.782;9.932;2023-04-25T06:51:35;9.88;;;5.75;;
10645;SDS011;5371;49.782;9.932;2023-04-25T06:54:04;7.22;;;5.50;;
10645;SDS011;5371;49.782;9.932;2023-04-25T06:56:39;8.82;;;6.10;;
10645;SDS011;5371;49.782;9.932;2023-04-25T06:59:12;11.40;;;5.65;;
10645;SDS011;5371;49.782;9.932;2023-04-25T07:01:45;8.07;;;5.20;;
10645;SDS011;5371;49.782;9.932;2023-04-25T07:04:19;8.82;;;5.93;;
10645;SDS011;5371;49.782;9.932;2023-04-25T07:06:55;9.55;;;5.30;;
10645;SDS011;5371;49.782;9.932;2023-04-25T07:09:35;7.43;;;5.32;;
10645;SDS011;5371;49.782;9.932;2023-04-25T07:12:04;10.35;;;5.50;;
10645;SDS011;5371;49.782;9.932;2023-04-25T07:14:34;8.90;;;5.60;;
10645;SDS011;5371;49.782;9.932;2023-04-25T07:17:03;6.95;;;5.47;;
10645;SDS011;5371;49.782;9.932;2023-04-25T07:19:34;8.38;;;5.43;;
10645;SDS011;5371;49.782;9.932;2023-04-25T07:22:08;9.98;;;5.25;;
10645;SDS011;5371;49.782;9.932;2023-04-25T07:24:43;9.88;;;5.60;;
10645;SDS011;5371;49.782;9.932;2023-04-25T07:27:16;9.43;;;5.60;;
10645;SDS011;5371;49.782;9.932;2023-04-25T07:29:50;11.07;;;5.47;;
10645;SDS011;5371;49.782;9.932;2023-04-25T07:32:25;9.07;;;5.47;;
10645;SDS011;5371;49.782;9.932;2023-04-25T07:34:53;7.28;;;4.88;;
10645;SDS011;5371;49.782;9.932;2023-04-25T07:37:22;7.80;;;5.00;;
10645;SDS011;5371;49.782;9.932;2023-04-25T07:40:02;7.57;;;4.72;;
10645;SDS011;5371;49.782;9.932;2023-04-25T07:42:32;10.10;;;4.72;;
10645;SDS011;5371;49.782;9.932;2023-04-25T07:45:00;7.75;;;4.60;;
10645;SDS011;5371;49.782;9.932;2023-04-25T07:47:30;5.40;;;4.22;;
10645;SDS011;5371;49.782;9.932;2023-04-25T07:49:58;6.65;;;3.80;;
10645;SDS011;5371;49.782;9.932;2023-04-25T07:52:28;8.27;;;4.00;;
10645;SDS011;5371;49.782;9.932;2023-04-25T07:55:05;8.13;;;3.95;;
10645;SDS011;5371;49.782;9.932;2023-04-25T07:57:43;5.10;;;3.42;;
10645;SDS011;5371;49.782;9.932;2023-04-25T08:00:11;4.95;;;3.30;;
10645;SDS011;5371;49.782;9.932;2023-04-25T08:02:43;8.25;;;3.67;;
10645;SDS011;5371;49.782;9.932;2023-04-25T08:05:18;7.10;;;4.00;;
10645;SDS011;5371;49.782;9.932;2023-04-25T08:07:51;4.43;;;3.35;;
10645;SDS011;5371;49.782;9.932;2023-04-25T08:10:18;6.78;;;3.55;;
10645;SDS011;5371;49.782;9.932;2023-04-25T08:12:48;8.23;;;4.75;;
10645;SDS011;5371;49.782;9.932;2023-04-25T08:15:16;5.78;;;3.25;;
10645;SDS011;5371;49.782;9.932;2023-04-25T08:17:46;4.03;;;2.78;;
10645;SDS011;5371;49.782;9.932;2023-04-25T08:20:15;4.78;;;2.60;;
10645;SDS011;5371;49.782;9.932;2023-04-25T08:22:44;3.92;;;2.30;;
10645;SDS011;5371;49.782;9.932;2023-04-25T08:25:34;5.53;;;2.40;;
10645;SDS011;5371;49.782;9.932;2023-04-25T08:28:06;5.53;;;2.35;;
10645;SDS011;5371;49.782;9.932;2023-04-25T08:30:36;4.50;;;2.20;;
10645;SDS011;5371;49.782;9.932;2023-04-25T08:33:08;8.30;;;2.40;;
10645;SDS011;5371;49.782;9.932;2023-04-25T08:35:58;3.25;;;1.90;;
10645;SDS011;5371;49.782;9.932;2023-04-25T08:38:27;4.93;;;2.00;;
10645;SDS011;5371;49.782;9.932;2023-04-25T08:40:55;7.90;;;4.82;;
10645;SDS011;5371;49.782;9.932;2023-04-25T08:43:23;5.70;;;2.00;;
10645;SDS011;5371;49.782;9.932;2023-04-25T08:45:53;3.78;;;2.10;;
10645;SDS011;5371;49.782;9.932;2023-04-25T08:48:41;4.35;;;1.95;;
10645;SDS011;5371;49.782;9.932;2023-04-25T08:51:09;3.35;;;2.38;;
10645;SDS011;5371;49.782;9.932;2023-04-25T08:53:37;4.15;;;1.90;;
10645;SDS011;5371;49.782;9.932;2023-04-25T08:56:08;3.60;;;1.80;;
10645;SDS011;5371;49.782;9.932;2023-04-25T08:58:35;3.55;;;1.80;;
10645;SDS011;5371;49.782;9.932;2023-04-25T09:01:02;3.90;;;2.30;;
10645;SDS011;5371;49.782;9.932;2023-04-25T09:03:36;3.50;;;2.03;;
10645;SDS011;5371;49.782;9.932;2023-04-25T09:06:04;3.10;;;2.00;;
10645;SDS011;5371;49.782;9.932;2023-04-25T09:08:31;3.28;;;2.17;;
10645;SDS011;5371;49.782;9.932;2023-04-25T09:10:58;6.45;;;2.50;;
10645;SDS011;5371;49.782;9.932;2023-04-25T09:13:27;15.68;;;4.35;;
10645;SDS011;5371;49.782;9.932;2023-04-25T09:16:17;3.65;;;2.40;;
10645;SDS011;5371;49.782;9.932;2023-04-25T09:19:20;4.32;;;2.58;;
10645;SDS011;5371;49.782;9.932;2023-04-25T09:21:50;4.70;;;2.63;;
10645;SDS011;5371;49.782;9.932;2023-04-25T09:24:19;3.50;;;2.17;;
10645;SDS011;5371;49.782;9.932;2023-04-25T09:26:57;4.85;;;2.60;;
